Time;durP1;ratioP1;P1;durP2;ratioP2;P2;SDS_P1;SDS_P2;PMS_P1;PMS_P2;Temp;Humidity;BMP_temperature;BMP_pressure;BME280_temperature;BME280_humidity;BME280_pressure;Samples;Min_cycle;Max_cycle;Signal;HPM_P1;HPM_P2
2022/01/26 00:00:07;;;;;;;0.20;0.20;;;;;;;;;;1737334;28;20221;-63
2022/01/26 00:05:48;;;;;;;0.10;0.10;;;;;;;;;;1733848;28;20246;-62
2022/01/26 00:06:42;;;;;;;0.00;0.00;;;;;;;;;;1755894;22;20370;-70
2022/01/26 00:07:33;;;;;;;0.20;0.20;;;;;;;;;;1760774;28;20228;-70
2022/01/26 00:08:26;;;;;;;0.00;0.00;;;;;;;;;;1759935;28;20255;-70
2022/01/26 00:09:17;;;;;;;0.05;0.05;;;;;;;;;;1760580;28;20321;-70
2022/01/26 00:10:12;;;;;;;0.10;0.10;;;;;;;;;;1765321;27;20257;-70
2022/01/26 00:11:03;;;;;;;0.00;0.00;;;;;;;;;;1764761;27;20337;-70
2022/01/26 00:11:56;;;;;;;0.00;0.00;;;;;;;;;;1767463;27;20278;-70
2022/01/26 00:12:47;;;;;;;0.20;0.20;;;;;;;;;;1766017;27;20207;-70
2022/01/26 00:13:40;;;;;;;0.13;0.13;;;;;;;;;;1759814;28;20509;-70
2022/01/26 00:14:31;;;;;;;0.00;0.00;;;;;;;;;;1761968;27;20534;-70
2022/01/26 00:15:24;;;;;;;0.00;0.00;;;;;;;;;;1765805;27;20207;-70
2022/01/26 00:16:25;;;;;;;0.00;0.00;;;;;;;;;;1766292;27;20317;-70
2022/01/26 00:17:17;;;;;;;0.00;0.00;;;;;;;;;;1767370;27;20313;-70
2022/01/26 00:18:08;;;;;;;0.00;0.00;;;;;;;;;;1767183;27;20200;-70
2022/01/26 00:19:03;;;;;;;0.03;0.03;;;;;;;;;;1765555;27;20591;-70
2022/01/26 00:20:00;;;;;;;0.00;0.00;;;;;;;;;;1764845;27;20215;-70
2022/01/26 00:20:56;;;;;;;0.10;0.10;;;;;;;;;;1765782;27;20235;-70
2022/01/26 00:21:49;;;;;;;0.10;0.10;;;;;;;;;;1766855;27;20232;-70
2022/01/26 00:22:55;;;;;;;0.00;0.00;;;;;;;;;;1766645;27;20198;-70
2022/01/26 00:25:19;;;;;;;0.00;0.00;;;;;;;;;;1763723;27;20680;-70
2022/01/26 00:26:17;;;;;;;0.00;0.00;;;;;;;;;;1765027;27;20235;-70
2022/01/26 00:27:29;;;;;;;0.00;0.00;;;;;;;;;;1767295;27;20221;-70
2022/01/26 00:28:46;;;;;;;0.10;0.10;;;;;;;;;;1766010;27;20197;-70
2022/01/26 00:29:41;;;;;;;0.20;0.20;;;;;;;;;;1766019;27;20207;-70
2022/01/26 00:38:34;;;;;;;0.10;0.10;;;;;;;;;;1759018;28;20469;-70
2022/01/26 00:39:01;;;;;;;0.20;0.20;;;;;;;;;;1767566;27;20341;-70
2022/01/26 00:39:53;;;;;;;0.00;0.00;;;;;;;;;;1762005;27;20213;-70
2022/01/26 00:40:52;;;;;;;0.10;0.10;;;;;;;;;;1757270;28;20220;-70
2022/01/26 00:41:45;;;;;;;0.10;0.10;;;;;;;;;;1760817;27;20236;-70
2022/01/26 00:42:40;;;;;;;0.00;0.00;;;;;;;;;;1767341;27;20204;-70
2022/01/26 00:43:31;;;;;;;0.10;0.10;;;;;;;;;;1760278;28;20207;-70
2022/01/26 00:44:30;;;;;;;0.10;0.10;;;;;;;;;;1759873;28;20200;-70
2022/01/26 00:45:25;;;;;;;0.00;0.00;;;;;;;;;;1751252;28;20214;-70
2022/01/26 00:46:18;;;;;;;0.08;0.08;;;;;;;;;;1758318;28;20223;-70
2022/01/26 00:47:09;;;;;;;0.15;0.15;;;;;;;;;;1760159;28;20614;-70
2022/01/26 00:48:04;;;;;;;0.00;0.00;;;;;;;;;;1762713;27;20215;-70
2022/01/26 00:48:56;;;;;;;0.10;0.10;;;;;;;;;;1767393;27;20201;-70
2022/01/26 00:49:50;;;;;;;0.00;0.00;;;;;;;;;;1766370;27;20192;-70
2022/01/26 00:50:49;;;;;;;0.10;0.10;;;;;;;;;;1765075;27;20244;-70
2022/01/26 00:51:41;;;;;;;0.10;0.10;;;;;;;;;;1766147;27;20636;-70
2022/01/26 00:52:39;;;;;;;0.20;0.20;;;;;;;;;;1766664;27;20261;-70
2022/01/26 00:53:34;;;;;;;0.10;0.10;;;;;;;;;;1766623;27;20400;-70
2022/01/26 00:54:27;;;;;;;0.00;0.00;;;;;;;;;;1766503;27;20560;-70
2022/01/26 00:55:19;;;;;;;0.08;0.08;;;;;;;;;;1762143;27;20870;-70
2022/01/26 00:56:11;;;;;;;0.40;0.40;;;;;;;;;;1766412;27;20228;-70
2022/01/26 00:57:03;;;;;;;0.00;0.00;;;;;;;;;;1767035;27;20581;-70
2022/01/26 00:57:54;;;;;;;0.00;0.00;;;;;;;;;;1764880;27;20216;-70
2022/01/26 00:58:47;;;;;;;0.10;0.10;;;;;;;;;;1759627;28;20193;-70
2022/01/26 00:59:38;;;;;;;0.00;0.00;;;;;;;;;;1759459;28;20215;-70
2022/01/26 01:00:30;;;;;;;0.03;0.03;;;;;;;;;;1757202;28;20247;-70
2022/01/26 01:01:22;;;;;;;0.15;0.15;;;;;;;;;;1758640;28;20207;-70
2022/01/26 01:02:14;;;;;;;0.00;0.00;;;;;;;;;;1758768;28;20563;-70
2022/01/26 01:03:05;;;;;;;0.00;0.00;;;;;;;;;;1760532;27;20200;-70
2022/01/26 01:03:57;;;;;;;0.17;0.17;;;;;;;;;;1760059;28;20650;-70
2022/01/26 01:04:50;;;;;;;0.08;0.08;;;;;;;;;;1762738;27;20549;-70
2022/01/26 01:05:50;;;;;;;0.00;0.00;;;;;;;;;;1765072;27;20228;-70
2022/01/26 01:06:47;;;;;;;0.00;0.00;;;;;;;;;;1760742;27;20254;-70
2022/01/26 01:07:40;;;;;;;0.10;0.10;;;;;;;;;;1759880;28;20205;-70
2022/01/26 01:08:32;;;;;;;0.10;0.10;;;;;;;;;;1759801;28;20207;-70
2022/01/26 01:09:25;;;;;;;0.10;0.10;;;;;;;;;;1759589;28;20216;-70
2022/01/26 01:10:19;;;;;;;0.10;0.10;;;;;;;;;;1757543;27;20459;-70
2022/01/26 01:11:11;;;;;;;0.00;0.00;;;;;;;;;;1758694;28;20225;-70
2022/01/26 01:12:05;;;;;;;0.00;0.00;;;;;;;;;;1760211;28;20205;-70
2022/01/26 01:12:59;;;;;;;0.10;0.10;;;;;;;;;;1759481;28;20201;-70
2022/01/26 01:13:50;;;;;;;0.00;0.00;;;;;;;;;;1759882;28;20208;-70
2022/01/26 01:14:44;;;;;;;0.00;0.00;;;;;;;;;;1762607;27;20203;-70
2022/01/26 01:15:35;;;;;;;0.00;0.00;;;;;;;;;;1765118;27;20261;-70
2022/01/26 01:16:28;;;;;;;0.20;0.20;;;;;;;;;;1762174;27;20269;-70
2022/01/26 01:17:23;;;;;;;0.10;0.10;;;;;;;;;;1760176;28;20240;-70
2022/01/26 01:18:21;;;;;;;0.10;0.10;;;;;;;;;;1760005;28;20201;-70
2022/01/26 01:19:28;;;;;;;0.10;0.10;;;;;;;;;;1759795;28;20291;-70
2022/01/26 01:20:38;;;;;;;0.00;0.00;;;;;;;;;;1764790;27;20204;-70
2022/01/26 01:22:55;;;;;;;0.00;0.00;;;;;;;;;;1759423;28;20282;-70
2022/01/26 01:24:13;;;;;;;0.00;0.00;;;;;;;;;;1764656;27;20189;-70
2022/01/26 01:25:48;;;;;;;0.00;0.00;;;;;;;;;;1764489;27;20196;-70
2022/01/26 01:27:57;;;;;;;0.03;0.03;;;;;;;;;;1766289;27;20184;-70
2022/01/26 01:29:12;;;;;;;0.20;0.20;;;;;;;;;;1756947;28;20606;-70
2022/01/26 01:30:09;;;;;;;0.20;0.20;;;;;;;;;;1759042;28;20197;-70
2022/01/26 01:31:12;;;;;;;0.00;0.00;;;;;;;;;;1757335;28;20225;-70
2022/01/26 01:32:11;;;;;;;0.00;0.00;;;;;;;;;;1760095;28;20189;-70
2022/01/26 01:33:08;;;;;;;0.20;0.20;;;;;;;;;;1762125;28;20193;-70
2022/01/26 01:34:00;;;;;;;0.00;0.00;;;;;;;;;;1766464;27;20656;-70
2022/01/26 01:34:52;;;;;;;0.10;0.10;;;;;;;;;;1765659;27;20235;-70
2022/01/26 01:35:46;;;;;;;0.00;0.00;;;;;;;;;;1765060;27;20239;-70
2022/01/26 01:36:41;;;;;;;0.00;0.00;;;;;;;;;;1766009;27;20281;-70
2022/01/26 01:37:32;;;;;;;0.00;0.00;;;;;;;;;;1767242;27;20196;-70
2022/01/26 01:38:27;;;;;;;0.20;0.20;;;;;;;;;;1765672;27;20205;-70
2022/01/26 01:39:22;;;;;;;0.00;0.00;;;;;;;;;;1766921;27;20200;-70
2022/01/26 01:40:14;;;;;;;0.00;0.00;;;;;;;;;;1757761;28;20213;-70
2022/01/26 01:41:06;;;;;;;0.00;0.00;;;;;;;;;;1759051;27;20228;-70
2022/01/26 01:41:58;;;;;;;0.03;0.03;;;;;;;;;;1760894;27;20197;-70
2022/01/26 01:42:49;;;;;;;0.00;0.00;;;;;;;;;;1760366;28;20529;-70
2022/01/26 01:43:41;;;;;;;0.17;0.17;;;;;;;;;;1766662;27;20204;-70
2022/01/26 01:44:32;;;;;;;0.00;0.00;;;;;;;;;;1765983;27;20269;-70
2022/01/26 01:45:30;;;;;;;0.00;0.00;;;;;;;;;;1764967;27;20544;-70
2022/01/26 01:46:22;;;;;;;0.20;0.20;;;;;;;;;;1765787;27;20257;-70
2022/01/26 01:47:14;;;;;;;0.00;0.00;;;;;;;;;;1766722;27;20659;-70
2022/01/26 01:48:05;;;;;;;0.10;0.10;;;;;;;;;;1763599;28;20204;-70
2022/01/26 01:48:58;;;;;;;0.00;0.00;;;;;;;;;;1759847;28;20216;-70
2022/01/26 01:49:49;;;;;;;0.10;0.10;;;;;;;;;;1762956;27;20204;-70
2022/01/26 01:50:42;;;;;;;0.00;0.00;;;;;;;;;;1764892;27;20243;-70
2022/01/26 01:51:37;;;;;;;0.00;0.00;;;;;;;;;;1766122;28;20247;-70
2022/01/26 01:52:30;;;;;;;0.00;0.00;;;;;;;;;;1766365;27;20193;-70
2022/01/26 01:53:29;;;;;;;0.03;0.03;;;;;;;;;;1766060;28;20256;-70
2022/01/26 01:54:24;;;;;;;0.10;0.10;;;;;;;;;;1767059;27;20668;-70
2022/01/26 01:55:16;;;;;;;0.00;0.00;;;;;;;;;;1765639;28;20231;-70
2022/01/26 01:56:09;;;;;;;0.00;0.00;;;;;;;;;;1765714;28;20224;-70
2022/01/26 01:57:00;;;;;;;0.10;0.10;;;;;;;;;;1766384;28;20208;-70
2022/01/26 01:57:52;;;;;;;0.00;0.00;;;;;;;;;;1765092;28;20211;-70
2022/01/26 01:58:44;;;;;;;0.00;0.00;;;;;;;;;;1759706;28;20577;-70
2022/01/26 01:59:36;;;;;;;0.10;0.10;;;;;;;;;;1759211;28;20258;-70
2022/01/26 02:00:28;;;;;;;0.10;0.10;;;;;;;;;;1756888;28;20244;-70
2022/01/26 02:01:20;;;;;;;0.20;0.20;;;;;;;;;;1760663;28;20205;-70
2022/01/26 02:02:11;;;;;;;0.00;0.00;;;;;;;;;;1766873;28;20631;-70
2022/01/26 02:03:04;;;;;;;0.00;0.00;;;;;;;;;;1766455;28;20225;-70
2022/01/26 02:03:55;;;;;;;0.08;0.08;;;;;;;;;;1766787;28;20208;-70
2022/01/26 02:04:47;;;;;;;0.00;0.00;;;;;;;;;;1760309;28;20238;-70
2022/01/26 02:05:38;;;;;;;0.00;0.00;;;;;;;;;;1757835;28;20623;-70
2022/01/26 02:06:31;;;;;;;0.00;0.00;;;;;;;;;;1759309;28;20679;-70
2022/01/26 02:07:23;;;;;;;0.00;0.00;;;;;;;;;;1759987;28;20346;-70
2022/01/26 02:08:15;;;;;;;0.10;0.10;;;;;;;;;;1759543;28;20209;-70
2022/01/26 02:09:07;;;;;;;0.00;0.00;;;;;;;;;;1760035;28;20238;-70
2022/01/26 02:10:01;;;;;;;0.00;0.00;;;;;;;;;;1758882;28;20262;-70
2022/01/26 02:10:52;;;;;;;0.00;0.00;;;;;;;;;;1757439;28;20323;-70
2022/01/26 02:11:46;;;;;;;0.00;0.00;;;;;;;;;;1760163;28;20690;-70
2022/01/26 02:12:42;;;;;;;0.10;0.10;;;;;;;;;;1767108;28;20290;-70
2022/01/26 02:13:42;;;;;;;0.20;0.20;;;;;;;;;;1766244;28;20538;-70
2022/01/26 02:14:39;;;;;;;0.03;0.03;;;;;;;;;;1764643;28;20212;-70
2022/01/26 02:15:38;;;;;;;0.00;0.00;;;;;;;;;;1757728;28;20224;-70
2022/01/26 02:16:36;;;;;;;0.10;0.10;;;;;;;;;;1761249;28;20200;-71
2022/01/26 02:17:47;;;;;;;0.10;0.10;;;;;;;;;;1760440;28;20226;-71
2022/01/26 02:18:55;;;;;;;0.00;0.00;;;;;;;;;;1763299;28;20542;-70
2022/01/26 02:21:18;;;;;;;0.10;0.10;;;;;;;;;;1749614;28;20241;-70
2022/01/26 02:52:51;;;;;;;0.30;0.30;;;;;;;;;;1757552;28;20494;-70
2022/01/26 02:54:14;;;;;;;0.10;0.10;;;;;;;;;;1760515;28;20239;-70
2022/01/26 02:55:20;;;;;;;0.00;0.00;;;;;;;;;;1760677;28;20280;-70
2022/01/26 02:56:19;;;;;;;0.00;0.00;;;;;;;;;;1758565;28;20229;-70
2022/01/26 03:09:01;;;;;;;0.10;0.10;;;;;;;;;;1758371;27;20559;-63
2022/01/26 03:10:00;;;;;;;0.40;0.40;;;;;;;;;;1755369;28;20198;-64
2022/01/26 03:10:55;;;;;;;0.10;0.10;;;;;;;;;;1729554;27;20338;-63
2022/01/26 03:11:48;;;;;;;0.10;0.10;;;;;;;;;;1737563;28;20191;-63
2022/01/26 03:12:47;;;;;;;0.20;0.20;;;;;;;;;;1744142;28;20222;-64
2022/01/26 03:13:43;;;;;;;0.00;0.00;;;;;;;;;;1740026;28;20265;-64
2022/01/26 03:14:45;;;;;;;0.20;0.20;;;;;;;;;;1738370;28;20183;-64
2022/01/26 03:15:41;;;;;;;0.10;0.10;;;;;;;;;;1736673;28;20242;-63
2022/01/26 03:16:38;;;;;;;0.00;0.00;;;;;;;;;;1737635;28;20727;-63
2022/01/26 03:17:46;;;;;;;0.22;0.22;;;;;;;;;;1744338;28;20320;-63
2022/01/26 03:18:59;;;;;;;0.20;0.20;;;;;;;;;;1738071;28;20262;-63
2022/01/26 03:19:54;;;;;;;0.10;0.10;;;;;;;;;;1738183;28;20336;-63
2022/01/26 03:20:48;;;;;;;0.00;0.00;;;;;;;;;;1734871;28;20319;-64
2022/01/26 03:21:49;;;;;;;0.20;0.20;;;;;;;;;;1738506;28;20203;-63
2022/01/26 03:28:45;;;;;;;0.00;0.00;;;;;;;;;;1732254;28;20327;-63
2022/01/26 03:29:53;;;;;;;0.05;0.05;;;;;;;;;;1735050;28;20563;-63
2022/01/26 03:31:29;;;;;;;0.20;0.20;;;;;;;;;;1728612;28;20846;-63
2022/01/26 03:32:53;;;;;;;0.10;0.10;;;;;;;;;;1728511;28;20218;-63
2022/01/26 03:34:00;;;;;;;0.10;0.10;;;;;;;;;;1726439;28;20242;-63
2022/01/26 03:34:55;;;;;;;0.20;0.20;;;;;;;;;;1729561;28;20275;-63
2022/01/26 03:35:49;;;;;;;0.10;0.10;;;;;;;;;;1734633;28;20239;-63
2022/01/26 03:36:48;;;;;;;0.17;0.17;;;;;;;;;;1735518;28;20226;-63
2022/01/26 03:37:39;;;;;;;0.05;0.05;;;;;;;;;;1730312;28;20238;-63
2022/01/26 03:38:41;;;;;;;0.30;0.30;;;;;;;;;;1732790;28;20243;-63
2022/01/26 03:39:41;;;;;;;0.17;0.17;;;;;;;;;;1735911;28;20214;-62
2022/01/26 03:40:36;;;;;;;0.10;0.10;;;;;;;;;;1730142;28;20755;-63
2022/01/26 03:41:37;;;;;;;0.03;0.03;;;;;;;;;;1731284;28;20207;-63
2022/01/26 03:42:29;;;;;;;0.03;0.03;;;;;;;;;;1737086;28;20273;-63
2022/01/26 03:43:20;;;;;;;0.20;0.20;;;;;;;;;;1735071;28;20272;-63
2022/01/26 03:44:13;;;;;;;0.20;0.20;;;;;;;;;;1737463;28;20199;-63
2022/01/26 03:45:04;;;;;;;0.20;0.20;;;;;;;;;;1734877;28;20214;-62
2022/01/26 03:45:57;;;;;;;0.20;0.20;;;;;;;;;;1727416;28;20223;-63
2022/01/26 03:46:48;;;;;;;0.10;0.10;;;;;;;;;;1733593;28;20222;-63
2022/01/26 03:47:40;;;;;;;0.00;0.00;;;;;;;;;;1730237;28;20351;-63
2022/01/26 03:48:32;;;;;;;0.30;0.30;;;;;;;;;;1735934;28;20199;-63
2022/01/26 03:49:24;;;;;;;0.10;0.10;;;;;;;;;;1736647;28;20219;-63
2022/01/26 03:50:15;;;;;;;0.10;0.10;;;;;;;;;;1730915;28;20260;-63
2022/01/26 03:51:07;;;;;;;0.00;0.00;;;;;;;;;;1729192;28;20255;-63
2022/01/26 03:51:58;;;;;;;0.10;0.10;;;;;;;;;;1733109;28;20204;-63
2022/01/26 03:52:51;;;;;;;0.00;0.00;;;;;;;;;;1730347;28;20670;-62
2022/01/26 03:53:42;;;;;;;0.15;0.15;;;;;;;;;;1733319;28;20675;-63
2022/01/26 03:54:36;;;;;;;0.20;0.20;;;;;;;;;;1731662;28;20670;-63
2022/01/26 03:55:27;;;;;;;0.10;0.10;;;;;;;;;;1731290;28;20235;-63
2022/01/26 03:56:19;;;;;;;0.00;0.00;;;;;;;;;;1735039;28;20273;-63
2022/01/26 03:57:12;;;;;;;0.00;0.00;;;;;;;;;;1737115;28;20207;-63
2022/01/26 03:58:03;;;;;;;0.10;0.10;;;;;;;;;;1734054;28;20204;-63
2022/01/26 03:58:55;;;;;;;0.10;0.10;;;;;;;;;;1734609;28;20207;-63
2022/01/26 03:59:46;;;;;;;0.10;0.10;;;;;;;;;;1736209;28;20203;-63
2022/01/26 04:00:38;;;;;;;0.10;0.10;;;;;;;;;;1727597;28;20227;-63
2022/01/26 04:01:30;;;;;;;0.10;0.10;;;;;;;;;;1728939;28;20204;-63
2022/01/26 04:02:22;;;;;;;0.10;0.10;;;;;;;;;;1731513;28;20208;-62
2022/01/26 04:03:13;;;;;;;0.20;0.20;;;;;;;;;;1730197;28;20211;-63
2022/01/26 04:04:06;;;;;;;0.20;0.20;;;;;;;;;;1735309;28;20230;-62
2022/01/26 04:05:01;;;;;;;0.30;0.30;;;;;;;;;;1732803;28;20203;-63
2022/01/26 04:05:53;;;;;;;0.08;0.08;;;;;;;;;;1734668;28;20777;-63
2022/01/26 04:06:45;;;;;;;0.10;0.10;;;;;;;;;;1734585;28;20219;-63
2022/01/26 04:07:37;;;;;;;0.00;0.00;;;;;;;;;;1730399;28;20218;-62
2022/01/26 04:08:31;;;;;;;0.22;0.22;;;;;;;;;;1735062;28;20314;-62
2022/01/26 04:09:23;;;;;;;0.10;0.10;;;;;;;;;;1735103;28;20264;-63
2022/01/26 04:10:23;;;;;;;0.20;0.20;;;;;;;;;;1725855;28;20209;-63
2022/01/26 04:11:30;;;;;;;0.20;0.20;;;;;;;;;;1730375;28;20227;-63
2022/01/26 04:12:23;;;;;;;0.00;0.00;;;;;;;;;;1731255;28;20200;-62
2022/01/26 04:13:14;;;;;;;0.10;0.10;;;;;;;;;;1728876;28;20633;-63
2022/01/26 04:14:08;;;;;;;0.10;0.10;;;;;;;;;;1726047;28;20205;-62
2022/01/26 04:15:07;;;;;;;0.08;0.08;;;;;;;;;;1730307;28;20253;-63
2022/01/26 04:15:59;;;;;;;0.10;0.10;;;;;;;;;;1723232;28;20231;-62
2022/01/26 04:16:50;;;;;;;0.00;0.00;;;;;;;;;;1734651;28;20227;-62
2022/01/26 04:17:42;;;;;;;0.20;0.20;;;;;;;;;;1739166;28;20203;-62
2022/01/26 04:18:36;;;;;;;0.20;0.20;;;;;;;;;;1735532;28;20273;-62
2022/01/26 04:19:32;;;;;;;0.05;0.05;;;;;;;;;;1734374;28;20269;-62
2022/01/26 04:20:27;;;;;;;0.20;0.20;;;;;;;;;;1733476;28;20781;-63
2022/01/26 04:21:27;;;;;;;0.00;0.00;;;;;;;;;;1736765;28;20245;-62
2022/01/26 04:22:24;;;;;;;0.08;0.08;;;;;;;;;;1731882;28;20211;-62
2022/01/26 04:23:22;;;;;;;0.20;0.20;;;;;;;;;;1731652;28;20348;-63
2022/01/26 04:24:18;;;;;;;0.10;0.10;;;;;;;;;;1733066;28;20195;-62
2022/01/26 04:25:18;;;;;;;0.10;0.10;;;;;;;;;;1733755;28;20199;-62
2022/01/26 04:26:13;;;;;;;0.20;0.20;;;;;;;;;;1737232;28;20245;-62
2022/01/26 04:27:14;;;;;;;0.10;0.10;;;;;;;;;;1739474;28;20222;-62
2022/01/26 04:28:13;;;;;;;0.20;0.20;;;;;;;;;;1736306;28;20219;-62
2022/01/26 04:29:10;;;;;;;0.17;0.17;;;;;;;;;;1738557;28;20191;-62
2022/01/26 04:30:01;;;;;;;0.10;0.10;;;;;;;;;;1734088;28;20651;-62
2022/01/26 04:30:54;;;;;;;0.10;0.10;;;;;;;;;;1735576;28;20239;-63
2022/01/26 04:31:45;;;;;;;0.13;0.13;;;;;;;;;;1733660;28;20729;-62
2022/01/26 04:32:37;;;;;;;0.10;0.10;;;;;;;;;;1739896;28;20689;-62
2022/01/26 04:33:32;;;;;;;0.08;0.08;;;;;;;;;;1736653;28;20252;-62
2022/01/26 04:34:24;;;;;;;0.20;0.20;;;;;;;;;;1731998;28;20204;-62
2022/01/26 04:35:16;;;;;;;0.20;0.20;;;;;;;;;;1736550;28;20217;-62
2022/01/26 04:36:12;;;;;;;0.00;0.00;;;;;;;;;;1737927;28;20678;-62
2022/01/26 04:37:12;;;;;;;0.22;0.22;;;;;;;;;;1736642;28;20235;-62
2022/01/26 04:38:15;;;;;;;0.10;0.10;;;;;;;;;;1735061;28;20678;-62
2022/01/26 04:39:11;;;;;;;0.15;0.15;;;;;;;;;;1733279;28;20196;-62
2022/01/26 04:40:05;;;;;;;0.20;0.20;;;;;;;;;;1732526;28;20215;-62
2022/01/26 04:41:06;;;;;;;0.30;0.30;;;;;;;;;;1737224;28;20239;-63
2022/01/26 04:42:03;;;;;;;0.00;0.00;;;;;;;;;;1735290;28;20198;-62
2022/01/26 04:43:01;;;;;;;0.03;0.03;;;;;;;;;;1733766;28;20279;-62
2022/01/26 04:43:58;;;;;;;0.10;0.10;;;;;;;;;;1735476;28;20223;-62
2022/01/26 04:44:55;;;;;;;0.10;0.10;;;;;;;;;;1734749;28;20203;-62
2022/01/26 04:45:47;;;;;;;0.30;0.30;;;;;;;;;;1730414;28;20263;-63
2022/01/26 04:46:39;;;;;;;0.10;0.10;;;;;;;;;;1735380;28;20630;-62
2022/01/26 04:47:30;;;;;;;0.20;0.20;;;;;;;;;;1726221;28;20205;-62
2022/01/26 04:48:25;;;;;;;0.10;0.10;;;;;;;;;;1731154;28;20208;-62
2022/01/26 04:49:16;;;;;;;0.10;0.10;;;;;;;;;;1739787;28;20239;-62
2022/01/26 04:50:10;;;;;;;0.13;0.13;;;;;;;;;;1734477;28;20423;-63
2022/01/26 04:51:01;;;;;;;0.20;0.20;;;;;;;;;;1724481;28;20832;-62
2022/01/26 04:51:53;;;;;;;0.25;0.25;;;;;;;;;;1728110;28;20192;-62
2022/01/26 04:52:46;;;;;;;0.35;0.35;;;;;;;;;;1731916;28;20203;-62
2022/01/26 04:53:38;;;;;;;0.20;0.20;;;;;;;;;;1728820;28;20207;-62
2022/01/26 04:54:30;;;;;;;0.10;0.10;;;;;;;;;;1731996;28;20617;-62
2022/01/26 04:55:22;;;;;;;0.03;0.03;;;;;;;;;;1723940;28;20204;-62
2022/01/26 04:56:14;;;;;;;0.00;0.00;;;;;;;;;;1733067;28;20246;-62
2022/01/26 04:57:08;;;;;;;0.10;0.10;;;;;;;;;;1729479;28;20302;-62
2022/01/26 04:58:00;;;;;;;0.10;0.10;;;;;;;;;;1733326;28;20204;-63
2022/01/26 04:58:52;;;;;;;0.10;0.10;;;;;;;;;;1736660;28;20263;-63
2022/01/26 04:59:43;;;;;;;0.20;0.20;;;;;;;;;;1736978;28;20631;-62
2022/01/26 05:00:35;;;;;;;0.25;0.25;;;;;;;;;;1728149;28;20230;-62
2022/01/26 05:01:27;;;;;;;0.17;0.17;;;;;;;;;;1730296;28;20591;-63
2022/01/26 05:02:19;;;;;;;0.20;0.20;;;;;;;;;;1737663;28;20682;-62
2022/01/26 05:03:10;;;;;;;0.10;0.10;;;;;;;;;;1736085;28;20213;-63
2022/01/26 05:04:02;;;;;;;0.20;0.20;;;;;;;;;;1737608;28;20600;-63
2022/01/26 05:04:53;;;;;;;0.20;0.20;;;;;;;;;;1736429;28;20462;-63
2022/01/26 05:05:46;;;;;;;0.10;0.10;;;;;;;;;;1730658;28;20235;-62
2022/01/26 05:06:37;;;;;;;0.20;0.20;;;;;;;;;;1732058;28;20219;-62
2022/01/26 05:07:29;;;;;;;0.08;0.08;;;;;;;;;;1738792;28;20214;-62
2022/01/26 05:08:20;;;;;;;0.00;0.00;;;;;;;;;;1731780;28;20369;-62
2022/01/26 05:09:13;;;;;;;0.00;0.00;;;;;;;;;;1725721;28;20199;-62
2022/01/26 05:10:04;;;;;;;0.10;0.10;;;;;;;;;;1729994;28;20211;-61
2022/01/26 05:10:57;;;;;;;0.10;0.10;;;;;;;;;;1736708;28;20695;-62
2022/01/26 05:11:51;;;;;;;0.10;0.10;;;;;;;;;;1738215;28;20672;-62
2022/01/26 05:12:44;;;;;;;0.20;0.20;;;;;;;;;;1739350;28;20226;-62
2022/01/26 05:13:36;;;;;;;0.10;0.10;;;;;;;;;;1732744;28;20564;-63
2022/01/26 05:14:28;;;;;;;0.10;0.10;;;;;;;;;;1738411;28;20199;-62
2022/01/26 05:15:22;;;;;;;0.10;0.10;;;;;;;;;;1731005;28;20208;-62
2022/01/26 05:16:14;;;;;;;0.10;0.10;;;;;;;;;;1724010;28;20240;-63
2022/01/26 05:17:06;;;;;;;0.10;0.10;;;;;;;;;;1721936;28;20216;-62
2022/01/26 05:17:58;;;;;;;0.10;0.10;;;;;;;;;;1725817;28;20211;-62
2022/01/26 05:18:49;;;;;;;0.10;0.10;;;;;;;;;;1732488;28;20250;-62
2022/01/26 05:19:41;;;;;;;0.00;0.00;;;;;;;;;;1725702;28;20204;-62
2022/01/26 05:20:33;;;;;;;0.10;0.10;;;;;;;;;;1729865;28;20239;-63
2022/01/26 05:21:27;;;;;;;0.20;0.20;;;;;;;;;;1728652;28;20207;-62
2022/01/26 05:22:18;;;;;;;0.10;0.10;;;;;;;;;;1724652;28;20262;-63
2022/01/26 05:23:10;;;;;;;0.20;0.20;;;;;;;;;;1726191;28;20203;-63
2022/01/26 05:24:01;;;;;;;0.15;0.15;;;;;;;;;;1726659;28;20231;-63
2022/01/26 05:24:54;;;;;;;0.00;0.00;;;;;;;;;;1726562;28;20568;-62
2022/01/26 05:25:45;;;;;;;0.30;0.30;;;;;;;;;;1728909;28;20235;-63
2022/01/26 05:26:37;;;;;;;0.20;0.20;;;;;;;;;;1728170;28;20244;-63
2022/01/26 05:27:28;;;;;;;0.05;0.05;;;;;;;;;;1731407;28;20203;-63
2022/01/26 05:28:22;;;;;;;0.10;0.10;;;;;;;;;;1730956;28;20339;-62
2022/01/26 05:29:13;;;;;;;0.10;0.10;;;;;;;;;;1718940;28;20201;-63
2022/01/26 05:30:06;;;;;;;0.10;0.10;;;;;;;;;;1724713;28;20643;-63
2022/01/26 05:30:57;;;;;;;0.10;0.10;;;;;;;;;;1721081;28;20228;-63
2022/01/26 05:31:49;;;;;;;0.32;0.32;;;;;;;;;;1729000;28;20234;-62
2022/01/26 05:32:40;;;;;;;0.10;0.10;;;;;;;;;;1725387;28;20724;-62
2022/01/26 05:33:33;;;;;;;0.10;0.10;;;;;;;;;;1729807;28;20208;-62
2022/01/26 05:34:24;;;;;;;0.00;0.00;;;;;;;;;;1730986;28;20203;-62
2022/01/26 05:35:16;;;;;;;0.10;0.10;;;;;;;;;;1726294;28;20204;-63
2022/01/26 05:36:08;;;;;;;0.20;0.20;;;;;;;;;;1724351;28;20289;-62
2022/01/26 05:37:00;;;;;;;0.00;0.00;;;;;;;;;;1729431;28;20290;-62
2022/01/26 05:37:51;;;;;;;0.22;0.22;;;;;;;;;;1725920;28;20561;-62
2022/01/26 05:38:43;;;;;;;0.10;0.10;;;;;;;;;;1728205;28;20199;-63
2022/01/26 05:39:37;;;;;;;0.10;0.10;;;;;;;;;;1729487;28;20607;-62
2022/01/26 05:40:29;;;;;;;0.10;0.10;;;;;;;;;;1725543;28;20771;-63
2022/01/26 05:41:21;;;;;;;0.20;0.20;;;;;;;;;;1726428;28;20215;-62
2022/01/26 05:42:13;;;;;;;0.13;0.13;;;;;;;;;;1729516;28;20204;-62
2022/01/26 05:43:04;;;;;;;0.13;0.13;;;;;;;;;;1731079;28;20618;-63
2022/01/26 05:43:58;;;;;;;0.10;0.10;;;;;;;;;;1727477;28;20691;-62
2022/01/26 05:44:49;;;;;;;0.10;0.10;;;;;;;;;;1725138;28;20794;-62
2022/01/26 05:45:42;;;;;;;0.10;0.10;;;;;;;;;;1727858;28;20227;-63
2022/01/26 05:46:39;;;;;;;0.30;0.30;;;;;;;;;;1728481;28;20227;-63
2022/01/26 05:47:32;;;;;;;0.10;0.10;;;;;;;;;;1732140;28;20594;-62
2022/01/26 05:48:23;;;;;;;0.00;0.00;;;;;;;;;;1729479;28;20732;-62
2022/01/26 05:49:18;;;;;;;0.20;0.20;;;;;;;;;;1725569;28;20234;-62
2022/01/26 05:50:09;;;;;;;0.25;0.25;;;;;;;;;;1727049;28;20380;-63
2022/01/26 05:51:06;;;;;;;0.10;0.10;;;;;;;;;;1724419;28;20683;-63
2022/01/26 05:51:58;;;;;;;0.20;0.20;;;;;;;;;;1729809;28;20322;-62
2022/01/26 05:52:50;;;;;;;0.10;0.10;;;;;;;;;;1730554;28;20202;-62
2022/01/26 05:53:41;;;;;;;0.03;0.03;;;;;;;;;;1727631;28;20583;-63
2022/01/26 05:54:34;;;;;;;0.20;0.20;;;;;;;;;;1729892;28;20564;-63
2022/01/26 05:55:25;;;;;;;0.10;0.10;;;;;;;;;;1726466;28;20200;-62
2022/01/26 05:56:17;;;;;;;0.00;0.00;;;;;;;;;;1726390;28;20188;-62
2022/01/26 05:57:08;;;;;;;0.20;0.20;;;;;;;;;;1729004;28;20579;-63
2022/01/26 05:58:00;;;;;;;0.10;0.10;;;;;;;;;;1729324;28;20580;-63
2022/01/26 05:58:52;;;;;;;0.00;0.00;;;;;;;;;;1727863;28;20208;-63
2022/01/26 05:59:45;;;;;;;0.03;0.03;;;;;;;;;;1725819;28;20218;-62
2022/01/26 06:00:36;;;;;;;0.00;0.00;;;;;;;;;;1723725;28;20276;-62
2022/01/26 06:01:29;;;;;;;0.20;0.20;;;;;;;;;;1722753;28;20714;-63
2022/01/26 06:02:20;;;;;;;0.10;0.10;;;;;;;;;;1730319;28;20245;-62
2022/01/26 06:03:12;;;;;;;0.00;0.00;;;;;;;;;;1728201;28;20253;-62
2022/01/26 06:04:04;;;;;;;0.00;0.00;;;;;;;;;;1730378;28;20207;-63
2022/01/26 06:04:56;;;;;;;0.03;0.03;;;;;;;;;;1724545;28;20211;-62
2022/01/26 06:05:47;;;;;;;0.22;0.22;;;;;;;;;;1728676;28;20235;-62
2022/01/26 06:06:39;;;;;;;0.10;0.10;;;;;;;;;;1729702;28;20222;-63
2022/01/26 06:07:30;;;;;;;0.20;0.20;;;;;;;;;;1731768;28;20204;-62
2022/01/26 06:08:23;;;;;;;0.00;0.00;;;;;;;;;;1728941;28;20630;-62
2022/01/26 06:09:14;;;;;;;0.00;0.00;;;;;;;;;;1724976;28;20208;-62
2022/01/26 06:10:06;;;;;;;0.10;0.10;;;;;;;;;;1727319;28;20208;-63
2022/01/26 06:10:59;;;;;;;0.10;0.10;;;;;;;;;;1729205;28;20236;-63
2022/01/26 06:11:51;;;;;;;0.00;0.00;;;;;;;;;;1725901;28;20258;-62
2022/01/26 06:12:42;;;;;;;0.10;0.10;;;;;;;;;;1731296;28;20575;-62
2022/01/26 06:13:35;;;;;;;0.20;0.20;;;;;;;;;;1726323;28;20594;-62
2022/01/26 06:14:26;;;;;;;0.20;0.20;;;;;;;;;;1730950;28;20211;-63
2022/01/26 06:15:20;;;;;;;0.20;0.20;;;;;;;;;;1724021;28;20200;-63
2022/01/26 06:16:11;;;;;;;0.10;0.10;;;;;;;;;;1722759;28;20692;-62
2022/01/26 06:17:03;;;;;;;0.10;0.10;;;;;;;;;;1731353;28;20204;-63
2022/01/26 06:17:54;;;;;;;0.30;0.30;;;;;;;;;;1730081;28;20659;-63
2022/01/26 06:18:47;;;;;;;0.10;0.10;;;;;;;;;;1731918;28;20991;-62
2022/01/26 06:19:38;;;;;;;0.00;0.00;;;;;;;;;;1724542;28;20228;-62
2022/01/26 06:20:30;;;;;;;0.13;0.13;;;;;;;;;;1725272;28;20652;-63
2022/01/26 06:21:21;;;;;;;0.20;0.20;;;;;;;;;;1724663;28;20223;-62
2022/01/26 06:22:14;;;;;;;0.10;0.10;;;;;;;;;;1730673;28;20242;-62
2022/01/26 06:23:05;;;;;;;0.10;0.10;;;;;;;;;;1729144;28;20215;-62
2022/01/26 06:23:58;;;;;;;0.40;0.40;;;;;;;;;;1722963;28;20211;-62
2022/01/26 06:24:49;;;;;;;0.15;0.15;;;;;;;;;;1722790;28;20236;-62
2022/01/26 06:25:41;;;;;;;0.22;0.22;;;;;;;;;;1723958;28;20227;-63
2022/01/26 06:26:33;;;;;;;0.00;0.00;;;;;;;;;;1725924;28;20263;-61
2022/01/26 06:27:25;;;;;;;0.03;0.03;;;;;;;;;;1725589;28;20203;-61
2022/01/26 06:28:16;;;;;;;0.22;0.22;;;;;;;;;;1724037;28;20216;-62
2022/01/26 06:29:08;;;;;;;0.10;0.10;;;;;;;;;;1731392;28;20204;-63
2022/01/26 06:29:59;;;;;;;0.00;0.00;;;;;;;;;;1724536;28;20946;-63
2022/01/26 06:30:58;;;;;;;0.10;0.10;;;;;;;;;;1727999;28;20235;-63
2022/01/26 06:31:49;;;;;;;0.10;0.10;;;;;;;;;;1725439;28;20193;-63
2022/01/26 06:32:42;;;;;;;0.13;0.13;;;;;;;;;;1730961;28;20734;-63